createdAt,value
2019-02-27T00:00:09.173Z,101969.49
2019-02-27T00:02:42.862Z,101968.52
2019-02-27T00:05:14.942Z,101962.70
2019-02-27T00:07:47.418Z,101962.97
2019-02-27T00:10:19.876Z,101963.47
2019-02-27T00:12:52.877Z,101962.47
2019-02-27T00:15:25.099Z,101954.98
2019-02-27T00:17:57.878Z,101963.00
2019-02-27T00:20:30.384Z,101962.73
2019-02-27T00:23:02.912Z,101964.71
2019-02-27T00:25:36.090Z,101960.52
2019-02-27T00:28:08.282Z,101957.06
2019-02-27T00:30:41.363Z,101954.36
2019-02-27T00:33:13.932Z,101948.08
2019-02-27T00:35:46.923Z,101948.19
2019-02-27T00:38:19.340Z,101951.48
2019-02-27T00:40:51.885Z,101951.98
2019-02-27T00:43:25.973Z,101952.38
2019-02-27T00:45:59.443Z,101954.30
2019-02-27T00:48:31.871Z,101961.00
2019-02-27T00:51:04.328Z,101961.00
2019-02-27T00:53:36.883Z,101951.02
2019-02-27T00:56:11.961Z,101955.20
2019-02-27T00:58:43.331Z,101950.16
2019-02-27T01:01:15.916Z,101948.80
2019-02-27T01:03:48.505Z,101941.93
2019-02-27T01:06:20.890Z,101940.42
2019-02-27T01:08:52.846Z,101938.80
2019-02-27T01:11:24.923Z,101941.04
2019-02-27T01:13:58.069Z,101934.38
2019-02-27T01:16:30.870Z,101937.22
2019-02-27T01:19:04.781Z,101929.95
2019-02-27T01:21:36.907Z,101922.94
2019-02-27T01:24:09.346Z,101922.94
2019-02-27T01:26:41.909Z,101920.87
2019-02-27T01:29:15.685Z,101918.24
2019-02-27T01:31:48.296Z,101912.32
2019-02-27T01:34:20.855Z,101917.98
2019-02-27T01:36:54.860Z,101913.41
2019-02-27T01:39:27.884Z,101913.70
2019-02-27T01:42:00.347Z,101907.16
2019-02-27T01:44:34.876Z,101903.59
2019-02-27T01:47:06.905Z,101893.98
2019-02-27T01:49:38.910Z,101890.91
2019-02-27T01:52:11.327Z,101887.70
2019-02-27T01:54:46.093Z,101883.22
2019-02-27T01:57:17.872Z,101852.19
2019-02-27T01:59:50.968Z,101852.19
2019-02-27T02:02:23.593Z,101872.54
2019-02-27T02:04:55.883Z,101859.06
2019-02-27T02:07:28.030Z,101859.06
2019-02-27T02:10:00.868Z,101856.97
2019-02-27T02:12:35.434Z,101853.67
2019-02-27T02:16:17.495Z,101854.76
2019-02-27T02:19:54.711Z,101853.14
2019-02-27T02:23:27.314Z,101844.83
2019-02-27T02:27:25.590Z,101844.59
2019-02-27T02:30:46.374Z,101845.20
2019-02-27T02:33:54.932Z,101842.49
2019-02-27T02:37:27.346Z,101841.84
2019-02-27T02:40:47.908Z,101838.16
2019-02-27T02:44:20.591Z,101842.49
2019-02-27T02:48:05.615Z,101833.47
2019-02-27T02:51:52.884Z,101840.52
2019-02-27T02:55:36.894Z,101840.52
2019-02-27T02:59:14.559Z,101844.09
2019-02-27T03:02:42.883Z,101847.44
2019-02-27T03:06:36.185Z,101855.94
2019-02-27T03:10:31.085Z,101851.10
2019-02-27T03:14:00.875Z,101857.14
2019-02-27T03:18:29.722Z,101843.26
2019-02-27T03:22:04.711Z,101848.80
2019-02-27T03:25:44.390Z,101841.05
2019-02-27T03:29:33.932Z,101835.98
2019-02-27T03:33:08.019Z,101841.52
2019-02-27T03:37:23.554Z,101840.34
2019-02-27T03:41:13.405Z,101843.16
2019-02-27T03:44:41.019Z,101843.16
2019-02-27T03:47:56.911Z,101839.22
2019-02-27T03:51:44.877Z,101833.56
2019-02-27T03:55:41.467Z,101826.04
2019-02-27T03:59:23.344Z,101833.82
2019-02-27T04:02:43.611Z,101832.58
2019-02-27T04:06:43.331Z,101809.91
2019-02-27T04:09:18.828Z,101809.91
2019-02-27T04:11:49.848Z,101799.07
2019-02-27T04:14:40.146Z,101799.07
2019-02-27T04:17:09.336Z,101815.08
2019-02-27T04:19:41.848Z,101816.79
2019-02-27T04:22:14.631Z,101812.45
2019-02-27T04:24:46.892Z,101818.14
2019-02-27T04:27:21.189Z,101818.14
2019-02-27T04:29:52.590Z,101821.20
2019-02-27T04:32:25.319Z,101823.89
2019-02-27T04:34:57.877Z,101823.89
2019-02-27T04:37:30.110Z,101821.33
2019-02-27T04:40:02.409Z,101819.00
2019-02-27T04:42:34.867Z,101814.08
2019-02-27T04:45:09.809Z,101811.98
2019-02-27T04:47:41.340Z,101817.67
2019-02-27T04:50:13.846Z,101824.21
2019-02-27T04:52:45.913Z,101817.80
2019-02-27T04:55:17.890Z,101812.34
2019-02-27T04:57:49.883Z,101814.59
2019-02-27T05:00:26.089Z,101804.73
2019-02-27T05:02:56.101Z,101808.80
2019-02-27T05:05:28.444Z,101808.66
2019-02-27T05:08:00.913Z,101805.73
2019-02-27T05:10:33.878Z,101805.61
2019-02-27T05:13:06.335Z,101807.20
2019-02-27T05:15:39.633Z,101805.73
2019-02-27T05:18:10.916Z,101804.61
2019-02-27T05:20:45.759Z,101797.98
2019-02-27T05:23:16.921Z,101800.28
2019-02-27T05:25:49.846Z,101800.61
2019-02-27T05:28:22.004Z,101797.78
2019-02-27T05:30:54.424Z,101797.69
2019-02-27T05:33:26.971Z,101788.20
2019-02-27T05:35:59.330Z,101785.22
2019-02-27T05:38:31.869Z,101781.63
2019-02-27T05:41:04.856Z,101782.28
2019-02-27T05:43:36.909Z,101779.56
2019-02-27T05:46:09.077Z,101774.88
2019-02-27T05:48:41.851Z,101768.52
2019-02-27T05:51:13.930Z,101768.84
2019-02-27T05:53:46.333Z,101771.89
2019-02-27T05:56:18.849Z,101767.56
2019-02-27T05:58:50.836Z,101770.89
2019-02-27T06:01:28.025Z,101772.17
2019-02-27T06:04:00.930Z,101768.99
2019-02-27T06:06:33.326Z,101770.81
2019-02-27T06:09:09.885Z,101761.98
2019-02-27T06:11:43.377Z,101767.06
2019-02-27T06:14:21.163Z,101767.06
2019-02-27T06:17:05.396Z,101762.88
2019-02-27T06:19:35.490Z,101768.06
2019-02-27T06:22:08.333Z,101764.00
2019-02-27T06:24:43.073Z,101762.64
2019-02-27T06:27:14.879Z,101759.45
2019-02-27T06:29:47.042Z,101759.45
2019-02-27T06:32:19.907Z,101765.50
2019-02-27T06:34:52.095Z,101759.11
2019-02-27T06:37:25.057Z,101755.75
2019-02-27T06:40:01.946Z,101752.25
2019-02-27T06:42:34.409Z,101752.59
2019-02-27T06:45:10.241Z,101757.41
2019-02-27T06:47:43.874Z,101752.72
2019-02-27T06:50:17.473Z,101753.02
2019-02-27T06:52:49.887Z,101755.81
2019-02-27T06:55:22.329Z,101754.25
2019-02-27T06:57:54.809Z,101749.22
2019-02-27T07:00:27.147Z,101752.63
2019-02-27T07:02:59.866Z,101751.16
2019-02-27T07:05:32.328Z,101749.56
2019-02-27T07:08:05.345Z,101747.59
2019-02-27T07:10:38.154Z,101749.30
2019-02-27T07:13:10.870Z,101752.39
2019-02-27T07:15:47.763Z,101755.23
2019-02-27T07:18:17.467Z,101755.34
2019-02-27T07:20:49.978Z,101755.58
2019-02-27T07:23:23.653Z,101749.69
2019-02-27T07:25:55.935Z,101753.84
2019-02-27T07:28:27.895Z,101755.89
2019-02-27T07:31:00.101Z,101746.83
2019-02-27T07:33:32.499Z,101752.83
2019-02-27T07:36:05.357Z,101746.91
2019-02-27T07:38:37.916Z,101745.70
2019-02-27T07:41:10.530Z,101748.00
2019-02-27T07:43:42.867Z,101740.05
2019-02-27T07:46:15.325Z,101741.59
2019-02-27T07:48:47.861Z,101734.98
2019-02-27T07:51:20.842Z,101733.51
2019-02-27T07:53:53.836Z,101732.03
2019-02-27T07:56:27.359Z,101732.14
2019-02-27T07:58:59.888Z,101728.59
2019-02-27T08:01:31.908Z,101736.10
2019-02-27T08:04:07.006Z,101735.98
2019-02-27T08:06:41.418Z,101736.52
2019-02-27T08:09:14.105Z,101725.17
2019-02-27T08:11:47.381Z,101725.17
2019-02-27T08:14:20.902Z,101725.95
2019-02-27T08:16:57.120Z,101722.50
2019-02-27T08:19:28.042Z,101729.39
2019-02-27T08:22:00.891Z,101729.39
2019-02-27T08:24:33.767Z,101723.11
2019-02-27T08:27:07.093Z,101722.96
2019-02-27T08:29:40.325Z,101719.50
2019-02-27T08:32:12.841Z,101711.09
2019-02-27T08:34:45.301Z,101718.33
2019-02-27T08:37:20.199Z,101710.88
2019-02-27T08:39:52.037Z,101706.93
2019-02-27T08:42:24.283Z,101703.59
2019-02-27T08:44:56.886Z,101705.05
2019-02-27T08:47:29.153Z,101708.05
2019-02-27T08:50:01.870Z,101702.86
2019-02-27T08:54:11.069Z,101698.92
2019-02-27T08:56:44.142Z,101698.04
2019-02-27T08:59:17.878Z,101672.28
2019-02-27T09:01:55.391Z,101672.28
2019-02-27T09:04:25.293Z,101683.34
2019-02-27T09:07:02.329Z,101683.34
2019-02-27T09:09:32.832Z,101672.47
2019-02-27T09:12:05.010Z,101672.47
2019-02-27T09:14:37.323Z,101674.68
2019-02-27T09:17:10.372Z,101671.97
2019-02-27T09:19:45.504Z,101664.72
2019-02-27T09:22:16.862Z,101654.84
2019-02-27T09:24:49.374Z,101654.84
2019-02-27T09:27:22.031Z,101666.88
2019-02-27T09:29:54.897Z,101668.58
2019-02-27T09:32:28.324Z,101662.80
2019-02-27T09:35:00.863Z,101666.59
2019-02-27T09:37:33.866Z,101660.18
2019-02-27T09:40:06.839Z,101656.17
2019-02-27T09:42:38.895Z,101652.61
2019-02-27T09:45:28.612Z,101648.41
2019-02-27T09:48:00.927Z,101642.60
2019-02-27T09:50:39.842Z,101642.60
2019-02-27T09:53:11.899Z,101641.69
2019-02-27T09:55:44.297Z,101635.21
2019-02-27T09:58:16.882Z,101632.49
2019-02-27T10:01:19.846Z,101632.72
2019-02-27T10:03:54.535Z,101634.92
2019-02-27T10:06:24.934Z,101633.34
2019-02-27T10:08:58.994Z,101627.92
2019-02-27T10:11:30.896Z,101618.92
2019-02-27T10:14:03.089Z,101621.85
2019-02-27T10:16:35.721Z,101610.48
2019-02-27T10:19:06.713Z,101610.41
2019-02-27T10:21:37.880Z,101605.33
2019-02-27T10:24:09.838Z,101609.85
2019-02-27T10:26:42.330Z,101601.34
2019-02-27T10:29:14.807Z,101603.13
2019-02-27T10:31:46.789Z,101598.97
2019-02-27T10:34:18.939Z,101595.91
2019-02-27T10:36:51.066Z,101590.77
2019-02-27T10:39:23.912Z,101589.97
2019-02-27T10:41:56.000Z,101581.19
2019-02-27T10:44:28.320Z,101577.97
2019-02-27T10:47:00.949Z,101576.91
2019-02-27T10:49:33.314Z,101570.33
2019-02-27T10:52:05.866Z,101564.18
2019-02-27T10:54:39.418Z,101556.45
2019-02-27T10:57:13.425Z,101555.18
2019-02-27T10:59:45.883Z,101562.61
2019-02-27T11:02:18.011Z,101558.75
2019-02-27T11:04:50.281Z,101551.95
2019-02-27T11:07:23.104Z,101542.66
2019-02-27T11:09:55.430Z,101541.86
2019-02-27T11:12:29.431Z,101537.28
2019-02-27T11:15:02.324Z,101512.87
2019-02-27T11:17:34.904Z,101512.87
2019-02-27T11:20:07.475Z,101518.98
2019-02-27T11:22:39.921Z,101522.08
2019-02-27T11:25:17.002Z,101520.72
2019-02-27T11:27:49.338Z,101512.82
2019-02-27T11:32:23.938Z,101495.39
2019-02-27T11:34:56.895Z,101495.39
2019-02-27T11:37:29.338Z,101495.58
2019-02-27T11:40:10.541Z,101502.08
2019-02-27T11:42:42.920Z,101490.52
2019-02-27T11:45:15.469Z,101486.72
2019-02-27T11:47:48.210Z,101481.95
2019-02-27T11:50:21.123Z,101474.48
2019-02-27T11:52:53.875Z,101474.48
2019-02-27T11:55:26.323Z,101468.99
2019-02-27T11:57:58.884Z,101468.86
2019-02-27T12:00:31.512Z,101461.93
2019-02-27T12:03:03.863Z,101464.50
2019-02-27T12:05:36.394Z,101460.97
2019-02-27T12:08:08.922Z,101461.63
2019-02-27T12:10:40.983Z,101451.30
2019-02-27T12:13:13.328Z,101448.17
2019-02-27T12:15:46.337Z,101453.41
2019-02-27T12:18:19.095Z,101448.17
2019-02-27T12:20:53.950Z,101445.02
2019-02-27T12:23:26.096Z,101434.56
2019-02-27T12:25:59.953Z,101434.56
2019-02-27T12:28:34.045Z,101416.76
2019-02-27T12:31:10.942Z,101410.50
2019-02-27T12:33:42.670Z,101406.73
2019-02-27T12:36:16.045Z,101385.50
2019-02-27T12:38:48.923Z,101388.89
2019-02-27T12:41:21.665Z,101388.89
2019-02-27T12:43:53.841Z,101366.95
2019-02-27T12:46:25.959Z,101366.95
2019-02-27T12:48:58.011Z,101362.49
2019-02-27T12:51:30.478Z,101364.05
2019-02-27T12:54:03.310Z,101361.53
2019-02-27T12:56:35.912Z,101355.59
2019-02-27T12:59:08.048Z,101352.70
2019-02-27T13:01:40.336Z,101351.25
2019-02-27T13:04:16.106Z,101347.26
2019-02-27T13:06:47.129Z,101338.25
2019-02-27T13:09:19.894Z,101338.25
2019-02-27T13:11:51.912Z,101333.02
2019-02-27T13:14:23.865Z,101327.58
2019-02-27T13:16:56.064Z,101319.22
2019-02-27T13:19:29.359Z,101313.27
2019-02-27T13:22:01.893Z,101314.16
2019-02-27T13:24:34.341Z,101315.52
2019-02-27T13:27:09.368Z,101315.20
2019-02-27T13:29:41.438Z,101306.00
2019-02-27T13:32:13.879Z,101307.56
2019-02-27T13:34:48.306Z,101298.72
2019-02-27T13:37:18.819Z,101291.13
2019-02-27T13:39:50.844Z,101291.44
2019-02-27T13:42:23.326Z,101282.77
2019-02-27T13:44:55.899Z,101280.20
2019-02-27T13:47:28.695Z,101271.92
2019-02-27T13:50:01.921Z,101267.56
2019-02-27T13:52:33.933Z,101253.98
2019-02-27T13:55:10.856Z,101252.28
2019-02-27T13:57:40.356Z,101247.55
2019-02-27T14:00:27.881Z,101239.59
2019-02-27T14:03:00.335Z,101239.59
2019-02-27T14:05:36.138Z,101223.75
2019-02-27T14:08:06.921Z,101222.20
2019-02-27T14:10:39.075Z,101222.20
2019-02-27T14:13:11.518Z,101216.23
2019-02-27T14:15:44.096Z,101215.72
2019-02-27T14:18:16.856Z,101207.95
2019-02-27T14:20:48.903Z,101207.95
2019-02-27T14:23:22.106Z,101205.42
2019-02-27T14:25:54.675Z,101201.72
2019-02-27T14:28:27.335Z,101196.28
2019-02-27T14:30:59.958Z,101196.28
2019-02-27T14:33:32.813Z,101193.23
2019-02-27T14:36:08.328Z,101189.81
2019-02-27T14:38:39.331Z,101178.94
2019-02-27T14:41:14.569Z,101176.40
2019-02-27T14:43:44.796Z,101167.02
2019-02-27T14:46:17.891Z,101171.80
2019-02-27T14:48:52.375Z,101166.55
2019-02-27T14:51:24.851Z,101166.37
2019-02-27T14:53:57.024Z,101165.85
2019-02-27T14:56:29.324Z,101151.41
2019-02-27T14:59:01.877Z,101145.45
2019-02-27T15:01:37.322Z,101140.02
2019-02-27T15:04:10.103Z,101139.88
2019-02-27T15:06:43.284Z,101133.59
2019-02-27T15:09:16.336Z,101134.22
2019-02-27T15:11:48.912Z,101131.55
2019-02-27T15:14:21.011Z,101130.23
2019-02-27T15:16:53.096Z,101121.75
2019-02-27T15:19:26.927Z,101115.78
2019-02-27T15:22:00.337Z,101108.97
2019-02-27T15:24:34.932Z,101107.08
2019-02-27T15:27:06.919Z,101079.81
2019-02-27T15:29:40.296Z,101079.81
2019-02-27T15:32:12.812Z,101097.37
2019-02-27T15:34:46.009Z,101088.84
2019-02-27T15:37:17.737Z,101082.38
2019-02-27T15:39:55.922Z,101082.38
2019-02-27T15:42:28.364Z,101083.23
2019-02-27T15:45:00.848Z,101081.53
2019-02-27T15:47:33.900Z,101080.50
2019-02-27T15:50:07.334Z,101078.11
2019-02-27T15:52:40.677Z,101071.30
2019-02-27T15:55:13.969Z,101068.59
2019-02-27T15:57:49.311Z,101069.27
2019-02-27T16:00:23.324Z,101068.41
2019-02-27T16:02:56.102Z,101063.98
2019-02-27T16:05:31.254Z,101061.26
2019-02-27T16:08:05.755Z,101063.98
2019-02-27T16:10:42.692Z,101059.39
2019-02-27T16:13:13.885Z,101058.02
2019-02-27T16:15:48.537Z,101055.27
2019-02-27T16:18:21.017Z,101053.89
2019-02-27T16:20:53.890Z,101054.06
2019-02-27T16:23:26.384Z,101054.92
2019-02-27T16:25:59.326Z,101055.59
2019-02-27T16:28:32.007Z,101052.88
2019-02-27T16:31:06.328Z,101048.12
2019-02-27T16:33:38.826Z,101037.55
2019-02-27T16:36:12.871Z,101035.00
2019-02-27T16:38:44.834Z,101038.06
2019-02-27T16:41:17.285Z,101032.77
2019-02-27T16:43:49.886Z,101029.36
2019-02-27T16:46:22.890Z,101025.63
2019-02-27T16:48:55.321Z,101022.73
2019-02-27T16:51:27.889Z,101029.55
2019-02-27T16:53:59.884Z,101023.25
2019-02-27T16:56:32.016Z,101019.32
2019-02-27T16:59:07.460Z,101013.02
2019-02-27T17:01:37.950Z,101009.27
2019-02-27T17:04:11.419Z,101011.65
2019-02-27T17:06:44.034Z,101011.62
2019-02-27T17:09:16.909Z,101011.62
2019-02-27T17:11:49.002Z,101006.86
2019-02-27T17:14:24.392Z,101000.06
2019-02-27T17:16:55.864Z,100999.35
2019-02-27T17:19:28.432Z,100989.14
2019-02-27T17:22:00.886Z,100985.05
2019-02-27T17:24:33.054Z,100986.77
2019-02-27T17:27:05.060Z,100984.41
2019-02-27T17:29:37.289Z,100980.16
2019-02-27T17:32:09.814Z,100975.25
2019-02-27T17:34:41.798Z,100970.12
2019-02-27T17:37:13.737Z,100964.31
2019-02-27T17:39:45.508Z,100960.91
2019-02-27T17:42:18.530Z,100960.58
2019-02-27T17:44:51.309Z,100957.69
2019-02-27T17:47:22.902Z,100957.68
2019-02-27T17:49:57.422Z,100954.12
2019-02-27T17:52:29.351Z,100957.88
2019-02-27T17:55:03.494Z,100948.48
2019-02-27T17:57:35.141Z,100949.17
2019-02-27T18:00:12.926Z,100951.21
2019-02-27T18:02:44.761Z,100943.06
2019-02-27T18:05:16.429Z,100936.06
2019-02-27T18:07:48.393Z,100926.71
2019-02-27T18:10:20.324Z,100918.03
2019-02-27T18:12:52.301Z,100917.85
2019-02-27T18:15:24.312Z,100916.65
2019-02-27T18:17:56.445Z,100908.94
2019-02-27T18:20:28.433Z,100907.16
2019-02-27T18:23:00.367Z,100906.47
2019-02-27T18:25:32.730Z,100895.36
2019-02-27T18:28:04.632Z,100893.70
2019-02-27T18:30:36.803Z,100884.95
2019-02-27T18:33:13.534Z,100884.95
2019-02-27T18:35:42.794Z,100883.27
2019-02-27T18:38:14.806Z,100876.63
2019-02-27T18:40:46.785Z,100863.70
2019-02-27T18:43:20.862Z,100862.88
2019-02-27T18:45:52.762Z,100864.60
2019-02-27T18:48:24.744Z,100861.22
2019-02-27T18:50:56.011Z,100859.32
2019-02-27T18:53:29.301Z,100862.03
2019-02-27T18:56:02.662Z,100863.39
2019-02-27T18:58:33.597Z,100866.29
2019-02-27T19:01:09.696Z,100837.37
2019-02-27T19:03:40.723Z,100837.37
2019-02-27T19:06:12.334Z,100845.55
2019-02-27T19:08:45.053Z,100850.31
2019-02-27T19:11:16.780Z,100841.11
2019-02-27T19:13:48.774Z,100844.14
2019-02-27T19:16:20.759Z,100840.56
2019-02-27T19:18:53.362Z,100835.28
2019-02-27T19:21:25.300Z,100831.70
2019-02-27T19:23:57.063Z,100827.44
2019-02-27T19:26:28.789Z,100829.09
2019-02-27T19:29:00.301Z,100827.34
2019-02-27T19:31:32.398Z,100821.64
2019-02-27T19:34:04.307Z,100821.36
2019-02-27T19:36:36.308Z,100811.01
2019-02-27T19:39:09.296Z,100814.38
2019-02-27T19:41:41.303Z,100806.05
2019-02-27T19:44:13.537Z,100806.74
2019-02-27T19:46:51.770Z,100799.94
2019-02-27T19:49:23.271Z,100800.42
2019-02-27T19:51:57.751Z,100796.53
2019-02-27T19:54:29.747Z,100792.11
2019-02-27T19:57:01.843Z,100784.62
2019-02-27T19:59:53.302Z,100783.27
2019-02-27T20:02:25.866Z,100778.67
2019-02-27T20:04:57.750Z,100774.23
2019-02-27T20:07:28.544Z,100765.56
2019-02-27T20:10:00.350Z,100771.69
2019-02-27T20:12:32.639Z,100751.30
2019-02-27T20:15:04.416Z,100758.45
2019-02-27T20:17:35.633Z,100761.84
2019-02-27T20:20:07.768Z,100757.74
2019-02-27T20:22:38.607Z,100757.74
2019-02-27T20:25:13.754Z,100737.52
2019-02-27T20:27:44.908Z,100737.52
2019-02-27T20:30:19.634Z,100750.61
2019-02-27T20:32:51.861Z,100727.81
2019-02-27T20:35:23.757Z,100727.81
2019-02-27T20:37:54.648Z,100737.67
2019-02-27T20:40:27.830Z,100727.66
2019-02-27T20:43:00.309Z,100727.66
2019-02-27T20:45:33.029Z,100726.96
2019-02-27T20:48:08.869Z,100720.68
2019-02-27T20:50:45.295Z,100720.33
2019-02-27T20:53:21.052Z,100718.63
2019-02-27T20:55:52.323Z,100713.52
2019-02-27T20:58:24.933Z,100714.70
2019-02-27T21:00:57.872Z,100707.55
2019-02-27T21:03:30.343Z,100708.56
2019-02-27T21:06:03.041Z,100709.09
2019-02-27T21:08:36.122Z,100709.88
2019-02-27T21:11:09.881Z,100708.52
2019-02-27T21:13:42.398Z,100704.09
2019-02-27T21:16:15.066Z,100695.59
2019-02-27T21:18:48.055Z,100690.34
2019-02-27T21:21:38.828Z,100683.53
2019-02-27T21:24:20.143Z,100681.53
2019-02-27T21:26:57.954Z,100673.56
2019-02-27T21:29:31.851Z,100666.59
2019-02-27T21:32:04.449Z,100658.73
2019-02-27T21:34:37.028Z,100654.67
2019-02-27T21:37:09.991Z,100651.60
2019-02-27T21:39:42.920Z,100647.02
2019-02-27T21:42:18.375Z,100641.92
2019-02-27T21:44:49.905Z,100638.18
2019-02-27T21:47:22.361Z,100633.93
2019-02-27T21:49:54.930Z,100628.32
2019-02-27T21:52:27.545Z,100629.50
2019-02-27T21:54:59.882Z,100606.07
2019-02-27T21:57:32.049Z,100606.07
2019-02-27T22:00:05.356Z,100605.74
2019-02-27T22:02:38.099Z,100606.41
2019-02-27T22:05:11.623Z,100600.34
2019-02-27T22:07:43.995Z,100591.66
2019-02-27T22:10:19.562Z,100591.66
2019-02-27T22:12:51.934Z,100586.53
2019-02-27T22:15:28.427Z,100586.53
2019-02-27T22:18:01.106Z,100591.15
2019-02-27T22:20:35.672Z,100586.05
2019-02-27T22:23:08.337Z,100574.17
2019-02-27T22:25:41.122Z,100574.17
2019-02-27T22:28:17.220Z,100570.44
2019-02-27T22:30:51.346Z,100568.39
2019-02-27T22:33:24.055Z,100566.70
2019-02-27T22:35:56.300Z,100563.80
2019-02-27T22:38:28.905Z,100560.09
2019-02-27T22:41:01.393Z,100555.66
2019-02-27T22:43:35.117Z,100550.92
2019-02-27T22:46:07.884Z,100546.83
2019-02-27T22:48:40.913Z,100542.94
2019-02-27T22:51:13.522Z,100547.70
2019-02-27T22:53:45.919Z,100537.48
2019-02-27T22:56:18.336Z,100531.56
2019-02-27T22:58:51.657Z,100525.98
2019-02-27T23:01:35.725Z,100527.33
2019-02-27T23:04:09.791Z,100524.11
2019-02-27T23:06:47.010Z,100523.59
2019-02-27T23:09:18.911Z,100515.27
2019-02-27T23:11:51.173Z,100512.41
2019-02-27T23:14:23.873Z,100510.34
2019-02-27T23:16:57.019Z,100505.97
2019-02-27T23:19:29.928Z,100509.50
2019-02-27T23:22:02.713Z,100504.91
2019-02-27T23:24:36.299Z,100503.55
2019-02-27T23:27:08.930Z,100509.87
2019-02-27T23:29:42.098Z,100507.47
2019-02-27T23:32:15.356Z,100509.68
2019-02-27T23:34:47.907Z,100508.98
2019-02-27T23:37:20.110Z,100505.59
2019-02-27T23:39:53.327Z,100507.63
2019-02-27T23:42:27.919Z,100504.77
2019-02-27T23:45:00.853Z,100497.30
2019-02-27T23:47:33.014Z,100494.74
2019-02-27T23:50:05.644Z,100494.41
2019-02-27T23:52:39.335Z,100475.73
2019-02-27T23:55:11.663Z,100475.73
2019-02-27T23:57:43.919Z,100461.48
